Nearby METAR Reports

 

KELM - Elmira, New York, USA
Distance from station: W 13mi, 20km
Updated: Fri, 24-Mar-2017 1:53am EDT
Overcast
Overcast
 Wind from SE
Wind: SE 5 mph , 7 km/h
Temperature: 34°F , 1°C
Wind Chill: 29°F , -2°C
Dew Point: 12°F , -11°C
Humidity: 41%
Barometer: 30.34 inHg , 1027.4 hPa
Clouds: Overcast
Visibility: 10 miles , 16 km
Cloud details: Overcast 9000 ft
2017/03/24 05:53 KELM 240553Z AUTO 13004KT 10SM OVC090 01/M11 A3034 RMK AO2 SLP283 T00111111 10022 21017 58027
KITH - Ithaca/Tompkins, New York, USA
Distance from station: NNE 24mi, 39km
Updated: Fri, 24-Mar-2017 1:56am EDT
Overcast
Overcast
 Wind from SSE
Wind: SSE 15 mph , 24 km/h
Temperature: 32°F , 0°C
Wind Chill: 22°F , -6°C
Dew Point: 12°F , -11°C
Humidity: 44%
Barometer: 30.33 inHg , 1027.1 hPa
Clouds: Overcast
Visibility: 10 miles , 16 km
Cloud details: Overcast 8500 ft
2017/03/24 05:56 KITH 240556Z AUTO 15013KT 10SM OVC085 00/M11 A3033 RMK AO2 SLP283 T00001111 10000 21017 56028
KBGM - Binghamton, New York, USA
Distance from station: E 35mi, 56km
Updated: Fri, 24-Mar-2017 1:53am EDT
Overcast
Overcast
 Wind from SSE
Wind: SSE 9 mph , 15 km/h
Temperature: 28°F , -2°C
Wind Chill: 19°F , -7°C
Dew Point: 7°F , -14°C
Humidity: 40%
Barometer: 30.35 inHg , 1027.8 hPa
Clouds: Overcast
Visibility: 10 miles , 16 km
Cloud details: Overcast 10000 ft
2017/03/24 05:53 KBGM 240553Z AUTO 16008KT 10SM OVC100 M02/M14 A3035 RMK AO2 SLP297 T10171139 11011 21033 56021
 
KPEO - Penn Yan, New York, USA
Distance from station: NNW 40mi, 64km
Updated: Fri, 24-Mar-2017 1:53am EDT
Overcast
Overcast
 Wind from SSW
Wind: SSW 8 mph , 13 km/h, Gust: 17 mph , 28 km/h
Temperature: 36°F , 2°C
Wind Chill: 30°F , -1°C
Dew Point: 16°F , -9°C
Humidity: 44%
Barometer: 30.29 inHg , 1025.7 hPa
Clouds: Overcast
Visibility: 10 miles , 16 km
Cloud details: Overcast 8500 ft
2017/03/24 05:53 KPEO 240553Z AUTO 20007G15KT 10SM OVC085 02/M09 A3029 RMK AO2 SLP267 T00171094 10022 21028 58038 $
KDSV - Dansville, New York, USA
Distance from station: WNW 61mi, 99km
Updated: Fri, 24-Mar-2017 1:54am EDT
Overcast
Overcast
 Wind from SE
Wind: SE 10 mph , 17 km/h
Temperature: 37°F , 3°C
Wind Chill: 30°F , -1°C
Dew Point: 10°F , -12°C
Humidity: 33%
Barometer: 30.27 inHg , 1025.1 hPa
Clouds: Overcast
Visibility: 10 miles , 16 km
Cloud details: Overcast 8000 ft
2017/03/24 05:54 KDSV 240554Z AUTO 14009KT 10SM OVC080 03/M12 A3027 RMK AO2 SLP265 T00331122 10039 21006 56033
KIPT - Williamsport, Pennsylvania, USA
Distance from station: SSW 64mi, 102km
Updated: Fri, 24-Mar-2017 1:54am EDT
Clear
Clear
 Wind from E
Wind: E 7 mph , 11 km/h
Temperature: 34°F , 1°C
Wind Chill: 28°F , -2°C
Dew Point: 16°F , -9°C
Humidity: 48%
Barometer: 30.42 inHg , 1030.1 hPa
Clouds: Clear
Visibility: 10 miles , 16 km
2017/03/24 05:54 KIPT 240554Z AUTO 08006KT 10SM CLR 01/M09 A3042 RMK AO2 SLP308 T00061094 10028 21011 57012 TSNO
 
KELZ - Wellsville, New York, USA
Distance from station: W 68mi, 110km
Updated: Fri, 24-Mar-2017 1:56am EDT
Partly cloudy
Partly cloudy
 Wind from SSE
Wind: SSE 10 mph , 17 km/h, Gust: 25 mph , 41 km/h
Temperature: 36°F , 2°C
Wind Chill: 29°F , -2°C
Dew Point: 7°F , -14°C
Humidity: 30%
Barometer: 30.24 inHg , 1024 hPa
Clouds: Partly cloudy
Visibility: 10 miles , 16 km
Cloud details: Partly cloudy 8000 ft
Partly cloudy 10000 ft
2017/03/24 05:56 KELZ 240556Z AUTO 16009G22KT 10SM SCT080 SCT100 02/M14 A3024 RMK AO2 SLP261 T00171139 10039 20011 58025 $
KSYR - Syracuse, New York, USA
Distance from station: NNE 72mi, 117km
Updated: Fri, 24-Mar-2017 1:54am EDT
Overcast
Overcast
 Wind from E
Wind: E 9 mph , 15 km/h
Temperature: 30°F , -1°C
Wind Chill: 22°F , -6°C
Dew Point: 12°F , -11°C
Humidity: 47%
Barometer: 30.34 inHg , 1027.4 hPa
Clouds: Overcast
Visibility: 10 miles , 16 km
Cloud details: Few Clouds 9000 ft
Overcast 10000 ft
2017/03/24 05:54 KSYR 240554Z 10008KT 10SM FEW090 OVC100 M01/M11 A3034 RMK AO2 PRESFR SLP276 4/003 T10061111 11006 21033 56036
KAVP - Avoca/Wilkes B., Pennsylvania, USA
Distance from station: SE 74mi, 120km
Updated: Fri, 24-Mar-2017 1:54am EDT
Clear
Clear
 Wind from calm
Wind: Calm
Temperature: 30°F , -1°C
Dew Point: 12°F , -11°C
Humidity: 47%
Barometer: 30.44 inHg , 1030.8 hPa
Clouds: Clear
Visibility: 10 miles , 16 km
2017/03/24 05:54 KAVP 240554Z 00000KT 10SM CLR M01/M11 A3044 RMK AO2 SLP316 T10061111 10006 21033 55006